sensor_id;sensor_type;location;lat;lon;timestamp;pressure;altitude;pressure_sealevel;temperature;humidity
41306;BME280;27051;50.376;19.152;2022-08-21T00:01:13;97708.56;;;21.45;72.82
41306;BME280;27051;50.376;19.152;2022-08-21T00:03:42;97706.75;;;21.46;72.81
41306;BME280;27051;50.376;19.152;2022-08-21T00:06:09;97698.20;;;21.44;72.72
41306;BME280;27051;50.376;19.152;2022-08-21T00:08:37;97696.26;;;21.45;72.76
41306;BME280;27051;50.376;19.152;2022-08-21T00:11:04;97696.06;;;21.44;72.77
41306;BME280;27051;50.376;19.152;2022-08-21T00:13:32;97694.29;;;21.45;72.79
41306;BME280;27051;50.376;19.152;2022-08-21T00:15:59;97696.02;;;21.48;72.83
41306;BME280;27051;50.376;19.152;2022-08-21T00:18:27;97699.67;;;21.49;72.76
41306;BME280;27051;50.376;19.152;2022-08-21T00:20:54;97700.63;;;21.51;72.84
41306;BME280;27051;50.376;19.152;2022-08-21T00:23:22;97696.53;;;21.51;72.77
41306;BME280;27051;50.376;19.152;2022-08-21T00:25:49;97691.41;;;21.53;72.79
41306;BME280;27051;50.376;19.152;2022-08-21T00:28:16;97697.20;;;21.55;72.78
41306;BME280;27051;50.376;19.152;2022-08-21T00:30:43;97693.11;;;21.55;72.71
41306;BME280;27051;50.376;19.152;2022-08-21T00:33:11;97697.13;;;21.50;72.62
41306;BME280;27051;50.376;19.152;2022-08-21T00:35:41;97690.45;;;21.51;72.75
41306;BME280;27051;50.376;19.152;2022-08-21T00:38:09;97689.50;;;21.50;72.68
41306;BME280;27051;50.376;19.152;2022-08-21T00:40:40;97684.72;;;21.45;72.70
41306;BME280;27051;50.376;19.152;2022-08-21T00:43:13;97683.00;;;21.43;72.69
41306;BME280;27051;50.376;19.152;2022-08-21T00:45:42;97678.02;;;21.38;72.79
41306;BME280;27051;50.376;19.152;2022-08-21T00:48:09;97676.59;;;21.30;73.02
41306;BME280;27051;50.376;19.152;2022-08-21T00:50:40;97674.98;;;21.33;73.05
41306;BME280;27051;50.376;19.152;2022-08-21T00:53:12;97673.34;;;21.27;73.07
41306;BME280;27051;50.376;19.152;2022-08-21T00:55:40;97672.28;;;21.21;73.32
41306;BME280;27051;50.376;19.152;2022-08-21T00:58:09;97664.52;;;21.19;73.25
41306;BME280;27051;50.376;19.152;2022-08-21T01:00:40;97660.83;;;21.18;73.51
41306;BME280;27051;50.376;19.152;2022-08-21T01:03:12;97660.30;;;21.15;73.81
41306;BME280;27051;50.376;19.152;2022-08-21T01:05:41;97660.55;;;21.12;73.65
41306;BME280;27051;50.376;19.152;2022-08-21T01:08:09;97655.09;;;21.12;73.72
41306;BME280;27051;50.376;19.152;2022-08-21T01:10:37;97657.49;;;21.18;73.80
41306;BME280;27051;50.376;19.152;2022-08-21T01:13:06;97653.91;;;21.21;73.81
41306;BME280;27051;50.376;19.152;2022-08-21T01:15:39;97653.66;;;21.24;73.71
41306;BME280;27051;50.376;19.152;2022-08-21T01:18:07;97645.22;;;21.27;73.82
41306;BME280;27051;50.376;19.152;2022-08-21T01:20:37;97636.97;;;21.30;73.83
41306;BME280;27051;50.376;19.152;2022-08-21T01:23:05;97635.66;;;21.27;73.78
41306;BME280;27051;50.376;19.152;2022-08-21T01:25:33;97639.51;;;21.29;73.98
41306;BME280;27051;50.376;19.152;2022-08-21T01:28:06;97640.05;;;21.32;74.04
41306;BME280;27051;50.376;19.152;2022-08-21T01:30:34;97637.65;;;21.34;74.07
41306;BME280;27051;50.376;19.152;2022-08-21T01:33:02;97640.92;;;21.37;74.10
41306;BME280;27051;50.376;19.152;2022-08-21T01:35:29;97632.07;;;21.41;74.10
41306;BME280;27051;50.376;19.152;2022-08-21T01:37:57;97633.79;;;21.43;74.03
41306;BME280;27051;50.376;19.152;2022-08-21T01:40:24;97629.03;;;21.48;74.22
41306;BME280;27051;50.376;19.152;2022-08-21T01:42:51;97627.66;;;21.48;74.22
41306;BME280;27051;50.376;19.152;2022-08-21T01:45:19;97622.27;;;21.52;74.20
41306;BME280;27051;50.376;19.152;2022-08-21T01:47:45;97618.96;;;21.53;74.16
41306;BME280;27051;50.376;19.152;2022-08-21T01:50:16;97621.86;;;21.54;74.22
41306;BME280;27051;50.376;19.152;2022-08-21T01:52:43;97609.91;;;21.56;74.25
41306;BME280;27051;50.376;19.152;2022-08-21T01:55:12;97599.39;;;21.62;74.35
41306;BME280;27051;50.376;19.152;2022-08-21T01:57:40;97595.39;;;21.67;74.34
41306;BME280;27051;50.376;19.152;2022-08-21T02:00:11;97596.59;;;21.66;74.18
41306;BME280;27051;50.376;19.152;2022-08-21T02:02:41;97595.39;;;21.67;74.27
41306;BME280;27051;50.376;19.152;2022-08-21T02:05:10;97593.26;;;21.66;74.18
41306;BME280;27051;50.376;19.152;2022-08-21T02:07:40;97587.69;;;21.70;74.32
41306;BME280;27051;50.376;19.152;2022-08-21T02:10:13;97584.70;;;21.73;74.30
41306;BME280;27051;50.376;19.152;2022-08-21T02:12:41;97581.72;;;21.75;74.27
41306;BME280;27051;50.376;19.152;2022-08-21T02:15:08;97581.91;;;21.76;74.33
41306;BME280;27051;50.376;19.152;2022-08-21T02:17:44;97572.23;;;21.80;74.32
41306;BME280;27051;50.376;19.152;2022-08-21T02:20:20;97571.83;;;21.81;74.34
41306;BME280;27051;50.376;19.152;2022-08-21T02:22:51;97568.07;;;21.83;74.39
41306;BME280;27051;50.376;19.152;2022-08-21T02:25:19;97571.83;;;21.81;74.29
41306;BME280;27051;50.376;19.152;2022-08-21T02:27:49;97570.97;;;21.84;74.41
41306;BME280;27051;50.376;19.152;2022-08-21T02:30:24;97574.05;;;21.86;74.29
41306;BME280;27051;50.376;19.152;2022-08-21T02:32:49;97575.77;;;21.88;74.38
41306;BME280;27051;50.376;19.152;2022-08-21T02:35:16;97570.45;;;21.89;74.34
41306;BME280;27051;50.376;19.152;2022-08-21T02:37:50;97569.18;;;21.86;74.26
41306;BME280;27051;50.376;19.152;2022-08-21T02:40:16;97576.53;;;21.89;74.28
41306;BME280;27051;50.376;19.152;2022-08-21T02:42:45;97571.73;;;21.85;74.30
41306;BME280;27051;50.376;19.152;2022-08-21T02:45:13;97572.33;;;21.84;74.35
41306;BME280;27051;50.376;19.152;2022-08-21T02:47:52;97574.81;;;21.87;74.36
41306;BME280;27051;50.376;19.152;2022-08-21T02:50:24;97573.03;;;21.88;74.36
41306;BME280;27051;50.376;19.152;2022-08-21T02:52:53;97570.80;;;21.83;74.28
41306;BME280;27051;50.376;19.152;2022-08-21T02:55:26;97570.97;;;21.84;74.39
41306;BME280;27051;50.376;19.152;2022-08-21T02:57:57;97569.18;;;21.86;74.39
41306;BME280;27051;50.376;19.152;2022-08-21T03:00:27;97564.73;;;21.84;74.32
41306;BME280;27051;50.376;19.152;2022-08-21T03:02:56;97571.92;;;21.86;74.41
41306;BME280;27051;50.376;19.152;2022-08-21T03:05:26;97569.59;;;21.84;74.41
41306;BME280;27051;50.376;19.152;2022-08-21T03:07:55;97574.05;;;21.86;74.46
41306;BME280;27051;50.376;19.152;2022-08-21T03:10:22;97565.14;;;21.82;74.37
41306;BME280;27051;50.376;19.152;2022-08-21T03:12:49;97569.59;;;21.84;74.49
41306;BME280;27051;50.376;19.152;2022-08-21T03:15:18;97575.77;;;21.88;74.56
41306;BME280;27051;50.376;19.152;2022-08-21T03:17:46;97577.99;;;21.85;74.40
41306;BME280;27051;50.376;19.152;2022-08-21T03:20:16;97580.47;;;21.88;74.52
41306;BME280;27051;50.376;19.152;2022-08-21T03:22:45;97580.53;;;21.93;74.52
41306;BME280;27051;50.376;19.152;2022-08-21T03:25:12;97577.98;;;21.94;74.49
41306;BME280;27051;50.376;19.152;2022-08-21T03:27:39;97581.23;;;21.97;74.54
41306;BME280;27051;50.376;19.152;2022-08-21T03:30:08;97583.88;;;22.00;74.36
41306;BME280;27051;50.376;19.152;2022-08-21T03:32:36;97585.50;;;21.98;74.46
41306;BME280;27051;50.376;19.152;2022-08-21T03:35:04;97582.19;;;21.98;74.59
41306;BME280;27051;50.376;19.152;2022-08-21T03:37:33;97584.66;;;22.01;74.52
41306;BME280;27051;50.376;19.152;2022-08-21T03:40:00;97584.41;;;22.03;74.48
41306;BME280;27051;50.376;19.152;2022-08-21T03:42:27;97597.64;;;22.05;74.34
41306;BME280;27051;50.376;19.152;2022-08-21T03:44:53;97600.22;;;22.04;74.40
41306;BME280;27051;50.376;19.152;2022-08-21T03:47:20;97604.41;;;22.08;74.52
41306;BME280;27051;50.376;19.152;2022-08-21T03:49:46;97605.70;;;22.04;74.12
41306;BME280;27051;50.376;19.152;2022-08-21T03:52:14;97611.33;;;22.05;74.47
41306;BME280;27051;50.376;19.152;2022-08-21T03:54:41;97604.23;;;22.07;74.50
41306;BME280;27051;50.376;19.152;2022-08-21T03:57:09;97601.23;;;22.10;74.48
41306;BME280;27051;50.376;19.152;2022-08-21T03:59:37;97603.55;;;22.11;74.50
41306;BME280;27051;50.376;19.152;2022-08-21T04:02:05;97610.39;;;22.11;74.36
41306;BME280;27051;50.376;19.152;2022-08-21T04:04:34;97612.69;;;22.13;74.50
41306;BME280;27051;50.376;19.152;2022-08-21T04:07:01;97605.53;;;22.11;74.29
41306;BME280;27051;50.376;19.152;2022-08-21T04:09:29;97615.42;;;22.13;74.48
41306;BME280;27051;50.376;19.152;2022-08-21T04:11:56;97604.83;;;22.15;74.43
41306;BME280;27051;50.376;19.152;2022-08-21T04:14:24;97603.64;;;22.16;74.47
41306;BME280;27051;50.376;19.152;2022-08-21T04:16:51;97610.00;;;22.21;74.46
41306;BME280;27051;50.376;19.152;2022-08-21T04:19:17;97609.66;;;22.19;74.33
41306;BME280;27051;50.376;19.152;2022-08-21T04:21:44;97606.22;;;22.23;74.48
41306;BME280;27051;50.376;19.152;2022-08-21T04:24:11;97609.55;;;22.31;74.41
41306;BME280;27051;50.376;19.152;2022-08-21T04:26:38;97615.12;;;22.27;74.30
41306;BME280;27051;50.376;19.152;2022-08-21T04:29:05;97615.37;;;22.33;74.45
41306;BME280;27051;50.376;19.152;2022-08-21T04:31:34;97606.13;;;22.35;74.14
41306;BME280;27051;50.376;19.152;2022-08-21T04:34:03;97611.34;;;22.38;74.27
41306;BME280;27051;50.376;19.152;2022-08-21T04:36:32;97606.72;;;22.43;74.20
41306;BME280;27051;50.376;19.152;2022-08-21T04:38:59;97605.70;;;22.45;74.22
41306;BME280;27051;50.376;19.152;2022-08-21T04:41:26;97601.22;;;22.51;74.35
41306;BME280;27051;50.376;19.152;2022-08-21T04:43:55;97605.57;;;22.57;74.30
41306;BME280;27051;50.376;19.152;2022-08-21T04:46:23;97603.10;;;22.62;74.19
41306;BME280;27051;50.376;19.152;2022-08-21T04:48:50;97606.34;;;22.65;74.11
41306;BME280;27051;50.376;19.152;2022-08-21T04:51:29;97611.11;;;22.69;74.13
41306;BME280;27051;50.376;19.152;2022-08-21T04:54:10;97613.27;;;22.70;73.80
41306;BME280;27051;50.376;19.152;2022-08-21T04:56:44;97614.38;;;22.64;73.95
41306;BME280;27051;50.376;19.152;2022-08-21T04:59:22;97610.45;;;22.65;73.96
41306;BME280;27051;50.376;19.152;2022-08-21T05:01:54;97614.11;;;22.67;73.94
41306;BME280;27051;50.376;19.152;2022-08-21T05:04:23;97617.64;;;22.67;73.96
41306;BME280;27051;50.376;19.152;2022-08-21T05:06:52;97618.75;;;22.70;74.06
41306;BME280;27051;50.376;19.152;2022-08-21T05:09:21;97624.47;;;22.75;73.85
41306;BME280;27051;50.376;19.152;2022-08-21T05:11:50;97622.59;;;22.72;73.83
41306;BME280;27051;50.376;19.152;2022-08-21T05:14:17;97630.63;;;22.71;73.79
41306;BME280;27051;50.376;19.152;2022-08-21T05:16:45;97629.94;;;22.75;73.96
41306;BME280;27051;50.376;19.152;2022-08-21T05:19:12;97634.39;;;22.78;73.81
41306;BME280;27051;50.376;19.152;2022-08-21T05:21:42;97637.13;;;22.78;73.93
41306;BME280;27051;50.376;19.152;2022-08-21T05:24:10;97636.42;;;22.82;73.81
41306;BME280;27051;50.376;19.152;2022-08-21T05:26:38;97636.84;;;22.88;73.83
41306;BME280;27051;50.376;19.152;2022-08-21T05:29:06;97635.89;;;22.95;73.78
41306;BME280;27051;50.376;19.152;2022-08-21T05:31:33;97635.44;;;22.96;73.63
41306;BME280;27051;50.376;19.152;2022-08-21T05:34:00;97642.91;;;22.96;73.45
41306;BME280;27051;50.376;19.152;2022-08-21T05:36:26;97642.22;;;22.92;73.48
41306;BME280;27051;50.376;19.152;2022-08-21T05:38:53;97647.78;;;22.96;73.58
41306;BME280;27051;50.376;19.152;2022-08-21T05:41:20;97646.02;;;22.98;73.47
41306;BME280;27051;50.376;19.152;2022-08-21T05:43:47;97644.64;;;22.98;73.35
41306;BME280;27051;50.376;19.152;2022-08-21T05:46:13;97649.09;;;23.00;73.35
41306;BME280;27051;50.376;19.152;2022-08-21T05:48:41;97646.02;;;22.98;73.31
41306;BME280;27051;50.376;19.152;2022-08-21T05:51:11;97650.28;;;22.99;73.21
41306;BME280;27051;50.376;19.152;2022-08-21T05:53:39;97645.98;;;23.06;73.38
41306;BME280;27051;50.376;19.152;2022-08-21T05:56:08;97648.88;;;23.07;73.32
41306;BME280;27051;50.376;19.152;2022-08-21T05:58:36;97651.88;;;23.13;73.19
41306;BME280;27051;50.376;19.152;2022-08-21T06:01:05;97652.77;;;23.23;73.31
41306;BME280;27051;50.376;19.152;2022-08-21T06:03:36;97655.50;;;23.31;73.01
41306;BME280;27051;50.376;19.152;2022-08-21T06:06:05;97655.38;;;23.34;72.91
41306;BME280;27051;50.376;19.152;2022-08-21T06:08:33;97652.72;;;23.39;72.86
41306;BME280;27051;50.376;19.152;2022-08-21T06:11:01;97646.42;;;23.47;72.90
41306;BME280;27051;50.376;19.152;2022-08-21T06:13:30;97647.25;;;23.52;72.70
41306;BME280;27051;50.376;19.152;2022-08-21T06:16:09;97642.66;;;23.61;72.62
41306;BME280;27051;50.376;19.152;2022-08-21T06:18:33;97642.27;;;23.68;72.62
41306;BME280;27051;50.376;19.152;2022-08-21T06:21:00;97647.16;;;23.76;72.56
41306;BME280;27051;50.376;19.152;2022-08-21T06:23:28;97641.39;;;23.79;72.30
41306;BME280;27051;50.376;19.152;2022-08-21T06:25:55;97654.11;;;23.86;72.27
41306;BME280;27051;50.376;19.152;2022-08-21T06:28:22;97650.76;;;23.86;72.25
41306;BME280;27051;50.376;19.152;2022-08-21T06:30:49;97657.53;;;23.90;72.05
41306;BME280;27051;50.376;19.152;2022-08-21T06:33:16;97656.16;;;23.90;71.80
41306;BME280;27051;50.376;19.152;2022-08-21T06:35:42;97663.84;;;23.95;71.82
41306;BME280;27051;50.376;19.152;2022-08-21T06:38:09;97657.04;;;23.99;71.87
41306;BME280;27051;50.376;19.152;2022-08-21T06:40:37;97653.23;;;24.01;71.47
41306;BME280;27051;50.376;19.152;2022-08-21T06:43:09;97656.64;;;23.93;71.26
41306;BME280;27051;50.376;19.152;2022-08-21T06:45:37;97660.87;;;23.89;71.53
41306;BME280;27051;50.376;19.152;2022-08-21T06:48:05;97660.00;;;23.92;71.50
41306;BME280;27051;50.376;19.152;2022-08-21T06:50:33;97662.19;;;23.97;71.55
41306;BME280;27051;50.376;19.152;2022-08-21T06:53:04;97668.38;;;23.93;71.47
41306;BME280;27051;50.376;19.152;2022-08-21T06:55:32;97669.42;;;23.91;71.15
41306;BME280;27051;50.376;19.152;2022-08-21T06:58:00;97669.27;;;23.90;71.30
41306;BME280;27051;50.376;19.152;2022-08-21T07:00:29;97667.47;;;23.92;71.07
41306;BME280;27051;50.376;19.152;2022-08-21T07:02:58;97670.77;;;23.87;71.10
41306;BME280;27051;50.376;19.152;2022-08-21T07:05:26;97669.42;;;23.91;71.29
41306;BME280;27051;50.376;19.152;2022-08-21T07:07:57;97670.97;;;23.92;71.01
41306;BME280;27051;50.376;19.152;2022-08-21T07:10:26;97678.52;;;23.75;70.12
41306;BME280;27051;50.376;19.152;2022-08-21T07:12:54;97682.68;;;23.46;69.66
41306;BME280;27051;50.376;19.152;2022-08-21T07:15:21;97685.42;;;23.17;69.50
41306;BME280;27051;50.376;19.152;2022-08-21T07:17:48;97688.48;;;22.90;69.61
41306;BME280;27051;50.376;19.152;2022-08-21T07:20:15;97693.81;;;22.72;69.14
41306;BME280;27051;50.376;19.152;2022-08-21T07:22:42;97695.54;;;22.50;69.03
41306;BME280;27051;50.376;19.152;2022-08-21T07:25:09;97695.87;;;22.36;69.41
41306;BME280;27051;50.376;19.152;2022-08-21T07:27:36;97694.50;;;22.27;69.20
41306;BME280;27051;50.376;19.152;2022-08-21T07:30:04;97702.11;;;22.20;69.55
41306;BME280;27051;50.376;19.152;2022-08-21T07:32:32;97703.25;;;22.10;69.20
41306;BME280;27051;50.376;19.152;2022-08-21T07:34:59;97696.92;;;22.05;69.28
41306;BME280;27051;50.376;19.152;2022-08-21T07:37:25;97698.28;;;22.05;69.39
41306;BME280;27051;50.376;19.152;2022-08-21T07:39:52;97696.00;;;22.12;69.54
41306;BME280;27051;50.376;19.152;2022-08-21T07:42:19;97701.63;;;22.13;69.43
41306;BME280;27051;50.376;19.152;2022-08-21T07:44:45;97701.72;;;22.09;69.31
41306;BME280;27051;50.376;19.152;2022-08-21T07:47:12;97698.22;;;22.09;69.37
41306;BME280;27051;50.376;19.152;2022-08-21T07:49:38;97696.51;;;22.15;69.50
41306;BME280;27051;50.376;19.152;2022-08-21T07:52:06;97699.63;;;22.25;69.30
41306;BME280;27051;50.376;19.152;2022-08-21T07:54:32;97702.36;;;22.33;69.24
41306;BME280;27051;50.376;19.152;2022-08-21T07:56:59;97696.82;;;22.37;69.17
41306;BME280;27051;50.376;19.152;2022-08-21T07:59:26;97699.97;;;22.44;69.25
41306;BME280;27051;50.376;19.152;2022-08-21T08:01:53;97698.52;;;22.56;69.09
41306;BME280;27051;50.376;19.152;2022-08-21T08:04:19;97697.91;;;22.64;69.00
41306;BME280;27051;50.376;19.152;2022-08-21T08:06:46;97696.81;;;22.70;68.93
41306;BME280;27051;50.376;19.152;2022-08-21T08:09:13;97691.91;;;22.69;68.46
41306;BME280;27051;50.376;19.152;2022-08-21T08:11:41;97690.73;;;22.70;68.91
41306;BME280;27051;50.376;19.152;2022-08-21T08:14:08;97695.67;;;22.84;68.78
41306;BME280;27051;50.376;19.152;2022-08-21T08:16:35;97699.02;;;22.83;68.62
41306;BME280;27051;50.376;19.152;2022-08-21T08:19:02;97691.06;;;22.81;68.43
41306;BME280;27051;50.376;19.152;2022-08-21T08:21:29;97689.52;;;22.88;68.39
41306;BME280;27051;50.376;19.152;2022-08-21T08:23:56;97684.53;;;22.99;68.47
41306;BME280;27051;50.376;19.152;2022-08-21T08:26:22;97686.56;;;23.11;68.08
41306;BME280;27051;50.376;19.152;2022-08-21T08:28:49;97683.49;;;23.30;68.19
41306;BME280;27051;50.376;19.152;2022-08-21T08:31:16;97684.70;;;23.50;68.28
41306;BME280;27051;50.376;19.152;2022-08-21T08:33:42;97683.70;;;23.65;67.91
41306;BME280;27051;50.376;19.152;2022-08-21T08:36:17;97679.02;;;23.78;67.66
41306;BME280;27051;50.376;19.152;2022-08-21T08:38:44;97677.23;;;24.05;67.87
41306;BME280;27051;50.376;19.152;2022-08-21T08:41:16;97679.14;;;24.26;67.15
41306;BME280;27051;50.376;19.152;2022-08-21T08:43:49;97683.66;;;24.45;66.72
41306;BME280;27051;50.376;19.152;2022-08-21T08:46:26;97685.49;;;24.61;66.74
41306;BME280;27051;50.376;19.152;2022-08-21T08:49:13;97683.85;;;24.81;65.87
41306;BME280;27051;50.376;19.152;2022-08-21T08:54:41;97684.86;;;25.27;65.22
41306;BME280;27051;50.376;19.152;2022-08-21T08:57:20;97678.78;;;25.59;64.72
41306;BME280;27051;50.376;19.152;2022-08-21T08:59:52;97680.69;;;25.93;64.37
41306;BME280;27051;50.376;19.152;2022-08-21T09:02:23;97680.80;;;26.20;63.21
41306;BME280;27051;50.376;19.152;2022-08-21T09:04:51;97671.95;;;26.39;62.96
41306;BME280;27051;50.376;19.152;2022-08-21T09:10:16;97668.67;;;26.72;62.15
41306;BME280;27051;50.376;19.152;2022-08-21T09:15:56;97672.98;;;26.87;61.18
41306;BME280;27051;50.376;19.152;2022-08-21T09:21:46;97672.78;;;26.58;60.24
41306;BME280;27051;50.376;19.152;2022-08-21T09:27:04;97670.30;;;26.47;60.37
41306;BME280;27051;50.376;19.152;2022-08-21T09:29:43;97665.41;;;26.46;60.13
41306;BME280;27051;50.376;19.152;2022-08-21T09:34:58;97671.24;;;26.53;59.34
41306;BME280;27051;50.376;19.152;2022-08-21T09:37:28;97671.50;;;26.46;59.39
41306;BME280;27051;50.376;19.152;2022-08-21T09:39:58;97669.36;;;26.45;58.96
41306;BME280;27051;50.376;19.152;2022-08-21T09:42:31;97668.13;;;26.37;58.76
41306;BME280;27051;50.376;19.152;2022-08-21T09:45:13;97670.28;;;26.42;59.03
41306;BME280;27051;50.376;19.152;2022-08-21T09:47:42;97665.21;;;26.40;58.03
41306;BME280;27051;50.376;19.152;2022-08-21T09:50:23;97665.52;;;26.38;58.36
41306;BME280;27051;50.376;19.152;2022-08-21T09:52:56;97663.08;;;26.40;58.28
41306;BME280;27051;50.376;19.152;2022-08-21T09:55:37;97672.39;;;26.29;57.45
41306;BME280;27051;50.376;19.152;2022-08-21T09:58:05;97663.03;;;26.22;57.81
41306;BME280;27051;50.376;19.152;2022-08-21T10:00:36;97666.25;;;26.25;57.46
41306;BME280;27051;50.376;19.152;2022-08-21T10:03:18;97660.91;;;26.30;57.42
41306;BME280;27051;50.376;19.152;2022-08-21T10:05:53;97664.02;;;26.46;57.56
41306;BME280;27051;50.376;19.152;2022-08-21T10:08:28;97661.45;;;26.61;56.68
41306;BME280;27051;50.376;19.152;2022-08-21T10:11:00;97668.82;;;26.73;57.23
41306;BME280;27051;50.376;19.152;2022-08-21T10:20:15;97671.74;;;27.16;56.93
41306;BME280;27051;50.376;19.152;2022-08-21T10:25:43;97670.67;;;27.45;56.53
41306;BME280;27051;50.376;19.152;2022-08-21T10:28:19;97666.97;;;27.53;56.30
41306;BME280;27051;50.376;19.152;2022-08-21T10:30:56;97662.65;;;27.66;56.02
41306;BME280;27051;50.376;19.152;2022-08-21T10:33:42;97661.27;;;27.61;55.71
41306;BME280;27051;50.376;19.152;2022-08-21T10:39:31;97666.80;;;27.57;54.93
41306;BME280;27051;50.376;19.152;2022-08-21T10:42:32;97664.98;;;27.44;55.08
41306;BME280;27051;50.376;19.152;2022-08-21T10:45:51;97668.54;;;27.31;54.94
41306;BME280;27051;50.376;19.152;2022-08-21T10:48:02;97666.09;;;27.24;54.95
41306;BME280;27051;50.376;19.152;2022-08-21T10:50:41;97668.54;;;27.26;55.00
41306;BME280;27051;50.376;19.152;2022-08-21T10:55:59;97667.88;;;27.50;54.88
41306;BME280;27051;50.376;19.152;2022-08-21T10:58:45;97673.09;;;27.53;54.73
41306;BME280;27051;50.376;19.152;2022-08-21T11:01:18;97675.40;;;27.49;55.06
41306;BME280;27051;50.376;19.152;2022-08-21T11:03:52;97674.28;;;27.65;55.11
41306;BME280;27051;50.376;19.152;2022-08-21T11:06:25;97672.72;;;27.87;54.69
41306;BME280;27051;50.376;19.152;2022-08-21T11:09:12;97672.53;;;27.96;54.43
41306;BME280;27051;50.376;19.152;2022-08-21T11:14:54;97667.28;;;28.07;54.42
41306;BME280;27051;50.376;19.152;2022-08-21T11:17:37;97664.98;;;28.01;54.39
41306;BME280;27051;50.376;19.152;2022-08-21T11:20:12;97667.16;;;28.01;54.39
41306;BME280;27051;50.376;19.152;2022-08-21T11:22:56;97671.01;;;27.95;54.18
41306;BME280;27051;50.376;19.152;2022-08-21T11:28:13;97680.78;;;27.39;54.85
41306;BME280;27051;50.376;19.152;2022-08-21T11:50:50;97669.27;;;26.62;55.42
41306;BME280;27051;50.376;19.152;2022-08-21T11:53:28;97674.76;;;26.53;55.58
41306;BME280;27051;50.376;19.152;2022-08-21T11:56:15;97665.43;;;26.55;55.56
41306;BME280;27051;50.376;19.152;2022-08-21T11:58:46;97667.28;;;26.63;55.65
41306;BME280;27051;50.376;19.152;2022-08-21T12:01:27;97671.45;;;26.95;55.46
41306;BME280;27051;50.376;19.152;2022-08-21T12:06:35;97664.11;;;27.95;54.24
41306;BME280;27051;50.376;19.152;2022-08-21T12:09:07;97665.66;;;28.24;53.47
41306;BME280;27051;50.376;19.152;2022-08-21T12:11:50;97661.20;;;28.55;53.52
41306;BME280;27051;50.376;19.152;2022-08-21T12:14:44;97652.42;;;28.57;53.38
41306;BME280;27051;50.376;19.152;2022-08-21T12:17:35;97655.41;;;28.73;52.91
41306;BME280;27051;50.376;19.152;2022-08-21T12:20:02;97656.77;;;29.16;52.79
41306;BME280;27051;50.376;19.152;2022-08-21T12:22:40;97662.08;;;29.39;52.22
41306;BME280;27051;50.376;19.152;2022-08-21T12:25:16;97660.75;;;29.15;52.25
41306;BME280;27051;50.376;19.152;2022-08-21T12:27:45;97658.58;;;28.81;52.11
41306;BME280;27051;50.376;19.152;2022-08-21T12:33:06;97665.90;;;28.07;52.69
41306;BME280;27051;50.376;19.152;2022-08-21T12:36:01;97667.22;;;27.74;52.58
41306;BME280;27051;50.376;19.152;2022-08-21T12:38:33;97666.70;;;27.23;52.88
41306;BME280;27051;50.376;19.152;2022-08-21T12:41:20;97666.55;;;26.90;53.35
41306;BME280;27051;50.376;19.152;2022-08-21T12:43:51;97671.41;;;26.54;53.72
41306;BME280;27051;50.376;19.152;2022-08-21T12:46:25;97668.41;;;26.30;54.25
41306;BME280;27051;50.376;19.152;2022-08-21T12:48:56;97663.91;;;26.09;54.34
41306;BME280;27051;50.376;19.152;2022-08-21T12:51:50;97662.30;;;25.90;54.81
41306;BME280;27051;50.376;19.152;2022-08-21T12:54:37;97660.69;;;25.80;55.14
41306;BME280;27051;50.376;19.152;2022-08-21T12:57:00;97653.14;;;25.66;55.27
41306;BME280;27051;50.376;19.152;2022-08-21T12:59:29;97656.36;;;25.69;55.44
41306;BME280;27051;50.376;19.152;2022-08-21T13:01:58;97662.39;;;25.82;55.45
41306;BME280;27051;50.376;19.152;2022-08-21T13:04:39;97664.53;;;25.77;55.51
41306;BME280;27051;50.376;19.152;2022-08-21T13:07:12;97669.91;;;25.59;55.69
41306;BME280;27051;50.376;19.152;2022-08-21T13:12:17;97674.84;;;25.38;56.04
41306;BME280;27051;50.376;19.152;2022-08-21T13:14:48;97669.27;;;25.28;56.18
41306;BME280;27051;50.376;19.152;2022-08-21T13:17:19;97668.32;;;25.22;56.47
41306;BME280;27051;50.376;19.152;2022-08-21T13:22:29;97669.69;;;25.05;56.63
41306;BME280;27051;50.376;19.152;2022-08-21T13:24:56;97662.71;;;24.91;56.89
41306;BME280;27051;50.376;19.152;2022-08-21T13:27:28;97671.53;;;24.86;57.27
41306;BME280;27051;50.376;19.152;2022-08-21T13:30:08;97679.16;;;24.69;57.22
41306;BME280;27051;50.376;19.152;2022-08-21T13:32:43;97678.42;;;24.56;57.49
41306;BME280;27051;50.376;19.152;2022-08-21T13:35:19;97676.09;;;24.41;57.65
41306;BME280;27051;50.376;19.152;2022-08-21T13:37:44;97679.95;;;24.31;57.80
41306;BME280;27051;50.376;19.152;2022-08-21T13:40:16;97682.77;;;24.23;58.35
41306;BME280;27051;50.376;19.152;2022-08-21T13:42:47;97679.00;;;24.12;58.21
41306;BME280;27051;50.376;19.152;2022-08-21T13:45:22;97674.81;;;24.08;58.52
41306;BME280;27051;50.376;19.152;2022-08-21T13:47:52;97683.33;;;24.05;58.50
41306;BME280;27051;50.376;19.152;2022-08-21T13:50:22;97681.50;;;24.07;58.68
41306;BME280;27051;50.376;19.152;2022-08-21T13:55:34;97688.48;;;23.90;58.86
41306;BME280;27051;50.376;19.152;2022-08-21T13:58:06;97684.08;;;23.80;59.06
41306;BME280;27051;50.376;19.152;2022-08-21T14:00:43;97691.84;;;23.69;59.35
41306;BME280;27051;50.376;19.152;2022-08-21T14:03:15;97692.13;;;23.58;59.42
41306;BME280;27051;50.376;19.152;2022-08-21T14:06:01;97696.97;;;23.46;59.69
41306;BME280;27051;50.376;19.152;2022-08-21T14:11:37;97699.90;;;23.17;60.26
41306;BME280;27051;50.376;19.152;2022-08-21T14:14:16;97707.14;;;22.95;60.35
41306;BME280;27051;50.376;19.152;2022-08-21T14:16:52;97716.22;;;22.84;60.78
41306;BME280;27051;50.376;19.152;2022-08-21T14:19:22;97717.17;;;22.69;60.76
41306;BME280;27051;50.376;19.152;2022-08-21T14:21:54;97718.81;;;22.50;61.06
41306;BME280;27051;50.376;19.152;2022-08-21T14:27:02;97713.76;;;22.32;61.76